sensor_id;sensor_type;location;lat;lon;timestamp;P1;durP1;ratioP1;P2;durP2;ratioP2
24897;SDS011;12957;49.434;8.684;2023-12-04T00:02:23;14.63;;;7.70;;
24897;SDS011;12957;49.434;8.684;2023-12-04T00:04:48;15.33;;;7.50;;
24897;SDS011;12957;49.434;8.684;2023-12-04T00:07:14;11.60;;;6.47;;
24897;SDS011;12957;49.434;8.684;2023-12-04T00:09:39;14.87;;;7.43;;
24897;SDS011;12957;49.434;8.684;2023-12-04T00:12:05;16.00;;;7.37;;
24897;SDS011;12957;49.434;8.684;2023-12-04T00:14:30;17.30;;;7.47;;
24897;SDS011;12957;49.434;8.684;2023-12-04T00:16:56;13.13;;;6.97;;
24897;SDS011;12957;49.434;8.684;2023-12-04T00:19:21;14.43;;;7.50;;
24897;SDS011;12957;49.434;8.684;2023-12-04T00:21:47;16.43;;;7.67;;
24897;SDS011;12957;49.434;8.684;2023-12-04T00:24:12;14.27;;;6.53;;
24897;SDS011;12957;49.434;8.684;2023-12-04T00:26:38;15.13;;;7.23;;
24897;SDS011;12957;49.434;8.684;2023-12-04T00:29:03;14.67;;;7.73;;
24897;SDS011;12957;49.434;8.684;2023-12-04T00:31:29;13.43;;;7.13;;
24897;SDS011;12957;49.434;8.684;2023-12-04T00:33:56;13.73;;;6.93;;
24897;SDS011;12957;49.434;8.684;2023-12-04T00:36:22;13.40;;;6.87;;
24897;SDS011;12957;49.434;8.684;2023-12-04T00:38:47;13.43;;;6.70;;
24897;SDS011;12957;49.434;8.684;2023-12-04T00:41:13;12.30;;;6.37;;
24897;SDS011;12957;49.434;8.684;2023-12-04T00:43:38;11.50;;;6.13;;
24897;SDS011;12957;49.434;8.684;2023-12-04T00:46:04;12.53;;;6.30;;
24897;SDS011;12957;49.434;8.684;2023-12-04T00:48:29;15.00;;;7.47;;
24897;SDS011;12957;49.434;8.684;2023-12-04T00:50:55;11.87;;;6.67;;
24897;SDS011;12957;49.434;8.684;2023-12-04T00:53:20;13.93;;;7.33;;
24897;SDS011;12957;49.434;8.684;2023-12-04T00:55:46;12.20;;;6.57;;
24897;SDS011;12957;49.434;8.684;2023-12-04T00:58:11;12.80;;;6.57;;
24897;SDS011;12957;49.434;8.684;2023-12-04T01:00:37;13.37;;;6.37;;
24897;SDS011;12957;49.434;8.684;2023-12-04T01:03:03;12.87;;;6.67;;
24897;SDS011;12957;49.434;8.684;2023-12-04T01:05:28;12.90;;;6.47;;
24897;SDS011;12957;49.434;8.684;2023-12-04T01:07:54;11.77;;;6.43;;
24897;SDS011;12957;49.434;8.684;2023-12-04T01:10:19;12.33;;;6.47;;
24897;SDS011;12957;49.434;8.684;2023-12-04T01:12:45;13.33;;;6.90;;
24897;SDS011;12957;49.434;8.684;2023-12-04T01:15:10;12.73;;;6.30;;
24897;SDS011;12957;49.434;8.684;2023-12-04T01:17:36;14.00;;;6.73;;
24897;SDS011;12957;49.434;8.684;2023-12-04T01:20:01;12.93;;;6.10;;
24897;SDS011;12957;49.434;8.684;2023-12-04T01:22:27;13.77;;;6.90;;
24897;SDS011;12957;49.434;8.684;2023-12-04T01:24:52;14.47;;;6.60;;
24897;SDS011;12957;49.434;8.684;2023-12-04T01:27:18;12.47;;;6.67;;
24897;SDS011;12957;49.434;8.684;2023-12-04T01:29:43;13.67;;;6.93;;
24897;SDS011;12957;49.434;8.684;2023-12-04T01:32:09;11.50;;;6.53;;
24897;SDS011;12957;49.434;8.684;2023-12-04T01:34:34;13.83;;;7.23;;
24897;SDS011;12957;49.434;8.684;2023-12-04T01:37:00;12.33;;;6.60;;
24897;SDS011;12957;49.434;8.684;2023-12-04T01:39:25;12.60;;;6.57;;
24897;SDS011;12957;49.434;8.684;2023-12-04T01:41:51;13.60;;;7.20;;
24897;SDS011;12957;49.434;8.684;2023-12-04T01:44:16;13.07;;;7.17;;
24897;SDS011;12957;49.434;8.684;2023-12-04T01:46:42;13.20;;;7.07;;
24897;SDS011;12957;49.434;8.684;2023-12-04T01:49:08;13.17;;;6.90;;
24897;SDS011;12957;49.434;8.684;2023-12-04T01:51:34;15.67;;;7.07;;
24897;SDS011;12957;49.434;8.684;2023-12-04T01:54:00;12.07;;;6.77;;
24897;SDS011;12957;49.434;8.684;2023-12-04T01:56:25;11.20;;;6.70;;
24897;SDS011;12957;49.434;8.684;2023-12-04T01:58:51;12.47;;;6.93;;
24897;SDS011;12957;49.434;8.684;2023-12-04T02:01:17;14.07;;;6.80;;
24897;SDS011;12957;49.434;8.684;2023-12-04T02:03:44;12.97;;;6.87;;
24897;SDS011;12957;49.434;8.684;2023-12-04T02:06:09;15.30;;;7.10;;
24897;SDS011;12957;49.434;8.684;2023-12-04T02:08:36;12.80;;;7.10;;
24897;SDS011;12957;49.434;8.684;2023-12-04T02:11:01;13.00;;;6.67;;
24897;SDS011;12957;49.434;8.684;2023-12-04T02:13:27;14.03;;;6.77;;
24897;SDS011;12957;49.434;8.684;2023-12-04T02:15:53;12.27;;;6.30;;
24897;SDS011;12957;49.434;8.684;2023-12-04T02:18:19;11.87;;;5.97;;
24897;SDS011;12957;49.434;8.684;2023-12-04T02:20:44;9.90;;;5.53;;
24897;SDS011;12957;49.434;8.684;2023-12-04T02:23:10;13.63;;;6.10;;
24897;SDS011;12957;49.434;8.684;2023-12-04T02:25:35;12.30;;;6.17;;
24897;SDS011;12957;49.434;8.684;2023-12-04T02:28:01;11.27;;;5.87;;
24897;SDS011;12957;49.434;8.684;2023-12-04T02:30:32;8.83;;;5.37;;
24897;SDS011;12957;49.434;8.684;2023-12-04T02:33:03;11.53;;;6.27;;
24897;SDS011;12957;49.434;8.684;2023-12-04T02:35:31;10.40;;;5.30;;
24897;SDS011;12957;49.434;8.684;2023-12-04T02:37:57;10.80;;;5.83;;
24897;SDS011;12957;49.434;8.684;2023-12-04T02:40:23;10.63;;;5.30;;
24897;SDS011;12957;49.434;8.684;2023-12-04T02:42:49;9.57;;;5.30;;
24897;SDS011;12957;49.434;8.684;2023-12-04T02:45:15;8.93;;;5.50;;
24897;SDS011;12957;49.434;8.684;2023-12-04T02:47:40;12.17;;;5.67;;
24897;SDS011;12957;49.434;8.684;2023-12-04T02:50:06;11.40;;;5.63;;
24897;SDS011;12957;49.434;8.684;2023-12-04T02:52:32;8.63;;;5.20;;
24897;SDS011;12957;49.434;8.684;2023-12-04T02:54:57;9.90;;;5.63;;
24897;SDS011;12957;49.434;8.684;2023-12-04T02:57:23;9.83;;;5.40;;
24897;SDS011;12957;49.434;8.684;2023-12-04T02:59:48;10.87;;;4.90;;
24897;SDS011;12957;49.434;8.684;2023-12-04T03:02:14;11.07;;;5.63;;
24897;SDS011;12957;49.434;8.684;2023-12-04T03:04:39;7.33;;;4.83;;
24897;SDS011;12957;49.434;8.684;2023-12-04T03:07:05;8.97;;;5.07;;
24897;SDS011;12957;49.434;8.684;2023-12-04T03:09:30;9.40;;;5.27;;
24897;SDS011;12957;49.434;8.684;2023-12-04T03:11:56;10.63;;;5.50;;
24897;SDS011;12957;49.434;8.684;2023-12-04T03:14:21;8.27;;;5.10;;
24897;SDS011;12957;49.434;8.684;2023-12-04T03:16:47;9.87;;;5.57;;
24897;SDS011;12957;49.434;8.684;2023-12-04T03:19:12;9.07;;;5.17;;
24897;SDS011;12957;49.434;8.684;2023-12-04T03:21:37;10.03;;;5.20;;
24897;SDS011;12957;49.434;8.684;2023-12-04T03:24:03;10.33;;;5.20;;
24897;SDS011;12957;49.434;8.684;2023-12-04T03:26:29;10.43;;;5.30;;
24897;SDS011;12957;49.434;8.684;2023-12-04T03:28:54;10.57;;;5.53;;
24897;SDS011;12957;49.434;8.684;2023-12-04T03:31:20;10.90;;;5.83;;
24897;SDS011;12957;49.434;8.684;2023-12-04T03:33:46;9.73;;;5.23;;
24897;SDS011;12957;49.434;8.684;2023-12-04T03:36:12;9.97;;;5.00;;
24897;SDS011;12957;49.434;8.684;2023-12-04T03:38:37;9.07;;;5.20;;
24897;SDS011;12957;49.434;8.684;2023-12-04T03:41:03;10.17;;;5.13;;
24897;SDS011;12957;49.434;8.684;2023-12-04T03:43:28;8.70;;;4.77;;
24897;SDS011;12957;49.434;8.684;2023-12-04T03:45:54;9.77;;;5.37;;
24897;SDS011;12957;49.434;8.684;2023-12-04T03:48:19;8.40;;;4.90;;
24897;SDS011;12957;49.434;8.684;2023-12-04T03:50:45;9.27;;;5.13;;
24897;SDS011;12957;49.434;8.684;2023-12-04T03:53:10;8.50;;;5.00;;
24897;SDS011;12957;49.434;8.684;2023-12-04T03:55:36;9.13;;;5.17;;
24897;SDS011;12957;49.434;8.684;2023-12-04T03:58:01;8.97;;;5.03;;
24897;SDS011;12957;49.434;8.684;2023-12-04T04:00:27;8.47;;;4.50;;
24897;SDS011;12957;49.434;8.684;2023-12-04T04:02:52;7.73;;;4.40;;
24897;SDS011;12957;49.434;8.684;2023-12-04T04:05:17;6.87;;;4.53;;
24897;SDS011;12957;49.434;8.684;2023-12-04T04:07:43;6.60;;;4.17;;
24897;SDS011;12957;49.434;8.684;2023-12-04T04:10:08;7.57;;;4.43;;
24897;SDS011;12957;49.434;8.684;2023-12-04T04:12:34;7.50;;;4.10;;
24897;SDS011;12957;49.434;8.684;2023-12-04T04:15:00;6.63;;;4.20;;
24897;SDS011;12957;49.434;8.684;2023-12-04T04:17:25;7.70;;;4.20;;
24897;SDS011;12957;49.434;8.684;2023-12-04T04:19:51;12.07;;;4.60;;
24897;SDS011;12957;49.434;8.684;2023-12-04T04:22:17;6.90;;;4.17;;
24897;SDS011;12957;49.434;8.684;2023-12-04T04:24:43;6.57;;;4.23;;
24897;SDS011;12957;49.434;8.684;2023-12-04T04:27:09;8.07;;;4.30;;
24897;SDS011;12957;49.434;8.684;2023-12-04T04:29:34;6.93;;;3.90;;
24897;SDS011;12957;49.434;8.684;2023-12-04T04:32:00;6.47;;;4.13;;
24897;SDS011;12957;49.434;8.684;2023-12-04T04:34:25;5.20;;;3.47;;
24897;SDS011;12957;49.434;8.684;2023-12-04T04:36:51;6.73;;;3.97;;
24897;SDS011;12957;49.434;8.684;2023-12-04T04:39:16;6.23;;;4.20;;
24897;SDS011;12957;49.434;8.684;2023-12-04T04:41:42;6.87;;;3.53;;
24897;SDS011;12957;49.434;8.684;2023-12-04T04:44:07;4.70;;;3.33;;
24897;SDS011;12957;49.434;8.684;2023-12-04T04:46:32;6.40;;;3.43;;
24897;SDS011;12957;49.434;8.684;2023-12-04T04:48:58;6.43;;;3.77;;
24897;SDS011;12957;49.434;8.684;2023-12-04T04:51:23;4.47;;;3.13;;
24897;SDS011;12957;49.434;8.684;2023-12-04T04:53:49;7.00;;;4.10;;
24897;SDS011;12957;49.434;8.684;2023-12-04T04:56:15;7.57;;;4.33;;
24897;SDS011;12957;49.434;8.684;2023-12-04T04:58:40;7.43;;;4.60;;
24897;SDS011;12957;49.434;8.684;2023-12-04T05:01:06;7.33;;;4.23;;
24897;SDS011;12957;49.434;8.684;2023-12-04T05:03:32;7.40;;;4.10;;
24897;SDS011;12957;49.434;8.684;2023-12-04T05:05:58;7.70;;;4.40;;
24897;SDS011;12957;49.434;8.684;2023-12-04T05:08:23;6.87;;;4.17;;
24897;SDS011;12957;49.434;8.684;2023-12-04T05:10:49;7.20;;;3.67;;
24897;SDS011;12957;49.434;8.684;2023-12-04T05:13:14;6.50;;;4.00;;
24897;SDS011;12957;49.434;8.684;2023-12-04T05:15:40;6.70;;;4.23;;
24897;SDS011;12957;49.434;8.684;2023-12-04T05:18:05;5.30;;;3.57;;
24897;SDS011;12957;49.434;8.684;2023-12-04T05:20:31;5.93;;;3.93;;
24897;SDS011;12957;49.434;8.684;2023-12-04T05:22:57;6.60;;;3.47;;
24897;SDS011;12957;49.434;8.684;2023-12-04T05:25:22;6.70;;;3.70;;
24897;SDS011;12957;49.434;8.684;2023-12-04T05:27:48;6.47;;;3.87;;
24897;SDS011;12957;49.434;8.684;2023-12-04T05:30:13;5.50;;;3.30;;
24897;SDS011;12957;49.434;8.684;2023-12-04T05:32:39;4.57;;;3.00;;
24897;SDS011;12957;49.434;8.684;2023-12-04T05:35:04;6.03;;;3.80;;
24897;SDS011;12957;49.434;8.684;2023-12-04T05:37:30;4.83;;;3.40;;
24897;SDS011;12957;49.434;8.684;2023-12-04T05:39:56;4.57;;;3.40;;
24897;SDS011;12957;49.434;8.684;2023-12-04T05:42:21;5.83;;;3.80;;
24897;SDS011;12957;49.434;8.684;2023-12-04T05:44:47;7.37;;;3.93;;
24897;SDS011;12957;49.434;8.684;2023-12-04T05:47:12;4.73;;;3.50;;
24897;SDS011;12957;49.434;8.684;2023-12-04T05:49:37;6.73;;;3.80;;
24897;SDS011;12957;49.434;8.684;2023-12-04T05:52:03;8.03;;;3.70;;
24897;SDS011;12957;49.434;8.684;2023-12-04T05:54:29;5.37;;;3.80;;
24897;SDS011;12957;49.434;8.684;2023-12-04T05:56:55;4.73;;;3.43;;
24897;SDS011;12957;49.434;8.684;2023-12-04T05:59:20;7.20;;;4.17;;
24897;SDS011;12957;49.434;8.684;2023-12-04T06:01:46;6.53;;;3.50;;
24897;SDS011;12957;49.434;8.684;2023-12-04T06:04:11;5.83;;;3.80;;
24897;SDS011;12957;49.434;8.684;2023-12-04T06:06:37;6.47;;;4.43;;
24897;SDS011;12957;49.434;8.684;2023-12-04T06:09:02;6.93;;;4.37;;
24897;SDS011;12957;49.434;8.684;2023-12-04T06:11:28;5.80;;;3.80;;
24897;SDS011;12957;49.434;8.684;2023-12-04T06:13:53;7.07;;;3.93;;
24897;SDS011;12957;49.434;8.684;2023-12-04T06:16:19;8.60;;;4.53;;
24897;SDS011;12957;49.434;8.684;2023-12-04T06:18:44;7.00;;;4.00;;
24897;SDS011;12957;49.434;8.684;2023-12-04T06:21:10;5.90;;;4.10;;
24897;SDS011;12957;49.434;8.684;2023-12-04T06:23:35;7.73;;;4.27;;
24897;SDS011;12957;49.434;8.684;2023-12-04T06:26:01;7.27;;;4.33;;
24897;SDS011;12957;49.434;8.684;2023-12-04T06:28:26;7.07;;;4.40;;
24897;SDS011;12957;49.434;8.684;2023-12-04T06:30:52;7.03;;;3.87;;
24897;SDS011;12957;49.434;8.684;2023-12-04T06:33:18;7.17;;;3.97;;
24897;SDS011;12957;49.434;8.684;2023-12-04T06:35:45;6.27;;;3.90;;
24897;SDS011;12957;49.434;8.684;2023-12-04T06:38:11;6.53;;;4.27;;
24897;SDS011;12957;49.434;8.684;2023-12-04T06:40:39;5.63;;;3.83;;
24897;SDS011;12957;49.434;8.684;2023-12-04T06:43:05;6.47;;;4.20;;
24897;SDS011;12957;49.434;8.684;2023-12-04T06:45:31;8.40;;;4.33;;
24897;SDS011;12957;49.434;8.684;2023-12-04T06:47:57;7.23;;;4.17;;
24897;SDS011;12957;49.434;8.684;2023-12-04T06:50:24;7.30;;;3.80;;
24897;SDS011;12957;49.434;8.684;2023-12-04T06:52:49;7.73;;;4.10;;
24897;SDS011;12957;49.434;8.684;2023-12-04T06:55:14;6.03;;;3.87;;
24897;SDS011;12957;49.434;8.684;2023-12-04T06:57:40;6.83;;;3.60;;
24897;SDS011;12957;49.434;8.684;2023-12-04T07:00:06;7.27;;;3.50;;
24897;SDS011;12957;49.434;8.684;2023-12-04T07:02:33;5.90;;;3.73;;
24897;SDS011;12957;49.434;8.684;2023-12-04T07:04:58;4.07;;;3.20;;
24897;SDS011;12957;49.434;8.684;2023-12-04T07:07:24;5.53;;;3.43;;
24897;SDS011;12957;49.434;8.684;2023-12-04T07:09:50;4.13;;;3.13;;
24897;SDS011;12957;49.434;8.684;2023-12-04T07:12:15;4.77;;;3.03;;
24897;SDS011;12957;49.434;8.684;2023-12-04T07:14:41;3.90;;;2.80;;
24897;SDS011;12957;49.434;8.684;2023-12-04T07:17:07;5.67;;;3.23;;
24897;SDS011;12957;49.434;8.684;2023-12-04T07:19:32;5.17;;;3.27;;
24897;SDS011;12957;49.434;8.684;2023-12-04T07:21:58;4.07;;;3.00;;
24897;SDS011;12957;49.434;8.684;2023-12-04T07:24:23;4.70;;;3.20;;
24897;SDS011;12957;49.434;8.684;2023-12-04T07:26:48;5.90;;;3.43;;
24897;SDS011;12957;49.434;8.684;2023-12-04T07:29:14;6.10;;;3.07;;
24897;SDS011;12957;49.434;8.684;2023-12-04T07:31:41;6.13;;;3.03;;
24897;SDS011;12957;49.434;8.684;2023-12-04T07:34:06;5.93;;;3.63;;
24897;SDS011;12957;49.434;8.684;2023-12-04T07:36:32;4.40;;;3.37;;
24897;SDS011;12957;49.434;8.684;2023-12-04T07:38:57;6.20;;;3.93;;
24897;SDS011;12957;49.434;8.684;2023-12-04T07:41:23;11.27;;;6.00;;
24897;SDS011;12957;49.434;8.684;2023-12-04T07:43:48;5.00;;;3.40;;
24897;SDS011;12957;49.434;8.684;2023-12-04T07:46:14;9.30;;;4.80;;
24897;SDS011;12957;49.434;8.684;2023-12-04T07:48:40;13.53;;;6.73;;
24897;SDS011;12957;49.434;8.684;2023-12-04T07:51:05;14.00;;;6.83;;
24897;SDS011;12957;49.434;8.684;2023-12-04T07:53:32;19.83;;;9.07;;
24897;SDS011;12957;49.434;8.684;2023-12-04T07:56:00;21.63;;;10.37;;
24897;SDS011;12957;49.434;8.684;2023-12-04T07:58:29;17.73;;;9.13;;
24897;SDS011;12957;49.434;8.684;2023-12-04T08:00:56;21.33;;;9.77;;
24897;SDS011;12957;49.434;8.684;2023-12-04T08:03:21;21.00;;;10.00;;
24897;SDS011;12957;49.434;8.684;2023-12-04T08:05:47;18.77;;;8.93;;
24897;SDS011;12957;49.434;8.684;2023-12-04T08:08:13;20.27;;;9.13;;
24897;SDS011;12957;49.434;8.684;2023-12-04T08:10:38;23.53;;;10.20;;
24897;SDS011;12957;49.434;8.684;2023-12-04T08:13:03;24.80;;;10.87;;
24897;SDS011;12957;49.434;8.684;2023-12-04T08:15:30;26.20;;;11.40;;
24897;SDS011;12957;49.434;8.684;2023-12-04T08:17:55;23.73;;;11.13;;
24897;SDS011;12957;49.434;8.684;2023-12-04T08:20:22;22.37;;;11.03;;
24897;SDS011;12957;49.434;8.684;2023-12-04T08:22:48;20.73;;;11.13;;
24897;SDS011;12957;49.434;8.684;2023-12-04T08:25:14;23.33;;;11.20;;
24897;SDS011;12957;49.434;8.684;2023-12-04T08:27:39;22.83;;;10.87;;
24897;SDS011;12957;49.434;8.684;2023-12-04T08:30:05;23.70;;;11.07;;
24897;SDS011;12957;49.434;8.684;2023-12-04T08:32:31;25.40;;;11.10;;
24897;SDS011;12957;49.434;8.684;2023-12-04T08:34:56;21.83;;;11.00;;
24897;SDS011;12957;49.434;8.684;2023-12-04T08:37:22;27.47;;;11.50;;
24897;SDS011;12957;49.434;8.684;2023-12-04T08:39:48;21.53;;;11.30;;
24897;SDS011;12957;49.434;8.684;2023-12-04T08:42:13;22.57;;;11.07;;
24897;SDS011;12957;49.434;8.684;2023-12-04T08:44:38;21.93;;;11.20;;
24897;SDS011;12957;49.434;8.684;2023-12-04T08:47:05;21.60;;;10.90;;
24897;SDS011;12957;49.434;8.684;2023-12-04T08:49:30;23.37;;;11.13;;
24897;SDS011;12957;49.434;8.684;2023-12-04T08:51:56;30.00;;;13.10;;
24897;SDS011;12957;49.434;8.684;2023-12-04T08:54:21;28.47;;;12.50;;
24897;SDS011;12957;49.434;8.684;2023-12-04T08:56:47;24.70;;;11.70;;
24897;SDS011;12957;49.434;8.684;2023-12-04T08:59:12;28.70;;;12.47;;
24897;SDS011;12957;49.434;8.684;2023-12-04T09:01:38;28.87;;;11.93;;
24897;SDS011;12957;49.434;8.684;2023-12-04T09:04:04;24.10;;;12.43;;
24897;SDS011;12957;49.434;8.684;2023-12-04T09:06:30;22.03;;;10.90;;
24897;SDS011;12957;49.434;8.684;2023-12-04T09:08:55;26.87;;;12.63;;
24897;SDS011;12957;49.434;8.684;2023-12-04T09:11:21;8.80;;;5.07;;
24897;SDS011;12957;49.434;8.684;2023-12-04T09:13:46;12.77;;;6.27;;
24897;SDS011;12957;49.434;8.684;2023-12-04T09:16:12;4.13;;;3.10;;
24897;SDS011;12957;49.434;8.684;2023-12-04T09:18:38;6.63;;;3.27;;
24897;SDS011;12957;49.434;8.684;2023-12-04T09:21:04;4.33;;;3.20;;
24897;SDS011;12957;49.434;8.684;2023-12-04T09:23:30;5.87;;;3.57;;
24897;SDS011;12957;49.434;8.684;2023-12-04T09:25:55;4.60;;;3.17;;
24897;SDS011;12957;49.434;8.684;2023-12-04T09:28:21;4.93;;;3.47;;
24897;SDS011;12957;49.434;8.684;2023-12-04T09:30:46;7.60;;;3.83;;
24897;SDS011;12957;49.434;8.684;2023-12-04T09:33:12;6.10;;;3.47;;
24897;SDS011;12957;49.434;8.684;2023-12-04T09:35:37;4.37;;;3.40;;
24897;SDS011;12957;49.434;8.684;2023-12-04T09:38:03;20.10;;;9.97;;
24897;SDS011;12957;49.434;8.684;2023-12-04T09:40:28;15.10;;;8.00;;
24897;SDS011;12957;49.434;8.684;2023-12-04T09:42:54;7.40;;;4.17;;
24897;SDS011;12957;49.434;8.684;2023-12-04T09:45:20;9.90;;;4.83;;
24897;SDS011;12957;49.434;8.684;2023-12-04T09:47:47;6.43;;;3.80;;
24897;SDS011;12957;49.434;8.684;2023-12-04T09:50:12;6.47;;;4.13;;
24897;SDS011;12957;49.434;8.684;2023-12-04T09:52:39;6.37;;;3.43;;
24897;SDS011;12957;49.434;8.684;2023-12-04T09:55:05;4.33;;;3.20;;
24897;SDS011;12957;49.434;8.684;2023-12-04T09:57:31;5.93;;;3.57;;
24897;SDS011;12957;49.434;8.684;2023-12-04T09:59:56;5.73;;;3.40;;
24897;SDS011;12957;49.434;8.684;2023-12-04T10:02:24;9.27;;;4.07;;
24897;SDS011;12957;49.434;8.684;2023-12-04T10:04:50;4.93;;;3.20;;
24897;SDS011;12957;49.434;8.684;2023-12-04T10:07:15;7.13;;;3.47;;
24897;SDS011;12957;49.434;8.684;2023-12-04T10:09:41;5.20;;;3.40;;
24897;SDS011;12957;49.434;8.684;2023-12-04T10:12:06;5.77;;;3.37;;
24897;SDS011;12957;49.434;8.684;2023-12-04T10:14:32;14.53;;;6.23;;
24897;SDS011;12957;49.434;8.684;2023-12-04T10:16:57;9.70;;;6.03;;
24897;SDS011;12957;49.434;8.684;2023-12-04T10:19:26;7.63;;;4.40;;
24897;SDS011;12957;49.434;8.684;2023-12-04T10:21:53;6.83;;;3.87;;
24897;SDS011;12957;49.434;8.684;2023-12-04T10:24:33;18.80;;;10.03;;
24897;SDS011;12957;49.434;8.684;2023-12-04T10:27:01;26.00;;;12.60;;
24897;SDS011;12957;49.434;8.684;2023-12-04T10:29:28;24.03;;;12.27;;
24897;SDS011;12957;49.434;8.684;2023-12-04T10:31:55;27.27;;;13.43;;
24897;SDS011;12957;49.434;8.684;2023-12-04T10:34:23;24.80;;;12.30;;
24897;SDS011;12957;49.434;8.684;2023-12-04T10:36:51;27.10;;;12.43;;
24897;SDS011;12957;49.434;8.684;2023-12-04T10:39:16;22.30;;;12.10;;
24897;SDS011;12957;49.434;8.684;2023-12-04T10:41:43;21.47;;;12.00;;
24897;SDS011;12957;49.434;8.684;2023-12-04T10:44:08;21.57;;;11.23;;
24897;SDS011;12957;49.434;8.684;2023-12-04T10:46:35;24.13;;;12.17;;
24897;SDS011;12957;49.434;8.684;2023-12-04T10:49:01;23.03;;;10.90;;
24897;SDS011;12957;49.434;8.684;2023-12-04T10:51:28;24.80;;;11.10;;
24897;SDS011;12957;49.434;8.684;2023-12-04T10:53:54;27.77;;;11.13;;
24897;SDS011;12957;49.434;8.684;2023-12-04T10:56:25;22.30;;;11.07;;
24897;SDS011;12957;49.434;8.684;2023-12-04T10:58:55;20.80;;;10.50;;
24897;SDS011;12957;49.434;8.684;2023-12-04T11:01:22;15.37;;;8.23;;
24897;SDS011;12957;49.434;8.684;2023-12-04T11:03:49;8.07;;;5.10;;
24897;SDS011;12957;49.434;8.684;2023-12-04T11:06:18;10.43;;;4.43;;
24897;SDS011;12957;49.434;8.684;2023-12-04T11:08:46;6.80;;;4.30;;
24897;SDS011;12957;49.434;8.684;2023-12-04T11:11:15;7.97;;;4.60;;
24897;SDS011;12957;49.434;8.684;2023-12-04T11:13:42;7.47;;;4.63;;
24897;SDS011;12957;49.434;8.684;2023-12-04T11:19:04;6.83;;;4.50;;
24897;SDS011;12957;49.434;8.684;2023-12-04T11:21:35;10.57;;;4.90;;
24897;SDS011;12957;49.434;8.684;2023-12-04T11:24:01;8.30;;;5.17;;
24897;SDS011;12957;49.434;8.684;2023-12-04T11:26:27;9.10;;;5.37;;
24897;SDS011;12957;49.434;8.684;2023-12-04T11:28:52;10.40;;;5.20;;
24897;SDS011;12957;49.434;8.684;2023-12-04T11:31:18;7.93;;;5.10;;
24897;SDS011;12957;49.434;8.684;2023-12-04T11:33:44;9.43;;;5.50;;
24897;SDS011;12957;49.434;8.684;2023-12-04T11:36:10;12.73;;;5.63;;
24897;SDS011;12957;49.434;8.684;2023-12-04T11:38:37;8.63;;;5.10;;
24897;SDS011;12957;49.434;8.684;2023-12-04T11:41:19;8.77;;;5.70;;
24897;SDS011;12957;49.434;8.684;2023-12-04T11:43:46;12.10;;;5.67;;
24897;SDS011;12957;49.434;8.684;2023-12-04T11:46:21;11.80;;;4.93;;
24897;SDS011;12957;49.434;8.684;2023-12-04T11:48:48;11.57;;;5.67;;
24897;SDS011;12957;49.434;8.684;2023-12-04T11:54:07;8.47;;;5.10;;
24897;SDS011;12957;49.434;8.684;2023-12-04T11:56:36;8.10;;;4.93;;
24897;SDS011;12957;49.434;8.684;2023-12-04T11:59:05;10.47;;;6.17;;
24897;SDS011;12957;49.434;8.684;2023-12-04T12:01:38;10.73;;;6.10;;
24897;SDS011;12957;49.434;8.684;2023-12-04T12:04:07;10.30;;;5.87;;
24897;SDS011;12957;49.434;8.684;2023-12-04T12:06:33;9.33;;;5.70;;
24897;SDS011;12957;49.434;8.684;2023-12-04T12:08:58;9.83;;;5.53;;
24897;SDS011;12957;49.434;8.684;2023-12-04T12:11:24;11.67;;;6.23;;
24897;SDS011;12957;49.434;8.684;2023-12-04T12:13:52;10.10;;;6.27;;
24897;SDS011;12957;49.434;8.684;2023-12-04T12:16:18;9.27;;;5.57;;
24897;SDS011;12957;49.434;8.684;2023-12-04T12:18:43;12.53;;;6.20;;
24897;SDS011;12957;49.434;8.684;2023-12-04T12:21:09;14.50;;;6.97;;
24897;SDS011;12957;49.434;8.684;2023-12-04T12:23:35;11.70;;;6.70;;
24897;SDS011;12957;49.434;8.684;2023-12-04T12:26:00;12.90;;;6.70;;
24897;SDS011;12957;49.434;8.684;2023-12-04T12:28:26;12.60;;;6.87;;
24897;SDS011;12957;49.434;8.684;2023-12-04T12:30:51;11.37;;;6.47;;
24897;SDS011;12957;49.434;8.684;2023-12-04T12:33:19;11.37;;;6.17;;
24897;SDS011;12957;49.434;8.684;2023-12-04T12:35:45;12.20;;;6.53;;
24897;SDS011;12957;49.434;8.684;2023-12-04T12:38:11;12.90;;;6.87;;
24897;SDS011;12957;49.434;8.684;2023-12-04T12:40:37;13.30;;;7.30;;
24897;SDS011;12957;49.434;8.684;2023-12-04T12:43:06;9.90;;;5.70;;
24897;SDS011;12957;49.434;8.684;2023-12-04T12:45:39;12.43;;;6.80;;
24897;SDS011;12957;49.434;8.684;2023-12-04T12:48:12;10.70;;;6.77;;
24897;SDS011;12957;49.434;8.684;2023-12-04T12:50:44;13.70;;;6.83;;
24897;SDS011;12957;49.434;8.684;2023-12-04T12:53:11;14.57;;;6.27;;
24897;SDS011;12957;49.434;8.684;2023-12-04T12:55:40;13.43;;;7.20;;
24897;SDS011;12957;49.434;8.684;2023-12-04T12:58:06;14.40;;;7.03;;
24897;SDS011;12957;49.434;8.684;2023-12-04T13:00:32;15.03;;;7.70;;
24897;SDS011;12957;49.434;8.684;2023-12-04T13:02:59;21.10;;;9.23;;
24897;SDS011;12957;49.434;8.684;2023-12-04T13:05:24;17.53;;;7.63;;
24897;SDS011;12957;49.434;8.684;2023-12-04T13:07:50;33.03;;;9.27;;
24897;SDS011;12957;49.434;8.684;2023-12-04T13:10:15;15.23;;;8.10;;
24897;SDS011;12957;49.434;8.684;2023-12-04T13:12:41;12.67;;;7.97;;
24897;SDS011;12957;49.434;8.684;2023-12-04T13:15:06;15.90;;;8.03;;
24897;SDS011;12957;49.434;8.684;2023-12-04T13:17:32;15.17;;;7.80;;
24897;SDS011;12957;49.434;8.684;2023-12-04T13:19:58;13.50;;;7.43;;
24897;SDS011;12957;49.434;8.684;2023-12-04T13:22:23;17.30;;;7.60;;
24897;SDS011;12957;49.434;8.684;2023-12-04T13:24:49;16.67;;;7.93;;
24897;SDS011;12957;49.434;8.684;2023-12-04T13:27:14;15.47;;;7.23;;
24897;SDS011;12957;49.434;8.684;2023-12-04T13:29:40;17.07;;;8.00;;
24897;SDS011;12957;49.434;8.684;2023-12-04T13:32:05;15.60;;;8.17;;
24897;SDS011;12957;49.434;8.684;2023-12-04T13:34:32;14.73;;;7.53;;
24897;SDS011;12957;49.434;8.684;2023-12-04T13:36:58;12.17;;;6.97;;
24897;SDS011;12957;49.434;8.684;2023-12-04T13:39:23;14.10;;;7.27;;
24897;SDS011;12957;49.434;8.684;2023-12-04T13:42:01;15.13;;;7.80;;
24897;SDS011;12957;49.434;8.684;2023-12-04T13:44:46;14.33;;;7.03;;
24897;SDS011;12957;49.434;8.684;2023-12-04T13:47:11;13.97;;;7.60;;
24897;SDS011;12957;49.434;8.684;2023-12-04T13:49:37;15.57;;;7.27;;
24897;SDS011;12957;49.434;8.684;2023-12-04T13:52:03;13.93;;;8.23;;
24897;SDS011;12957;49.434;8.684;2023-12-04T13:54:32;12.23;;;7.10;;
24897;SDS011;12957;49.434;8.684;2023-12-04T13:57:09;16.17;;;7.67;;
24897;SDS011;12957;49.434;8.684;2023-12-04T13:59:38;16.70;;;8.57;;
24897;SDS011;12957;49.434;8.684;2023-12-04T14:02:04;15.37;;;7.90;;
24897;SDS011;12957;49.434;8.684;2023-12-04T14:04:35;14.07;;;8.13;;
24897;SDS011;12957;49.434;8.684;2023-12-04T14:07:00;16.60;;;8.30;;
24897;SDS011;12957;49.434;8.684;2023-12-04T14:09:26;16.50;;;7.70;;
24897;SDS011;12957;49.434;8.684;2023-12-04T14:11:52;14.97;;;8.33;;
24897;SDS011;12957;49.434;8.684;2023-12-04T14:14:17;16.50;;;8.07;;
24897;SDS011;12957;49.434;8.684;2023-12-04T14:16:43;16.87;;;7.90;;
24897;SDS011;12957;49.434;8.684;2023-12-04T14:19:11;13.60;;;7.37;;
24897;SDS011;12957;49.434;8.684;2023-12-04T14:21:37;13.57;;;7.50;;
24897;SDS011;12957;49.434;8.684;2023-12-04T14:24:03;15.07;;;8.67;;
24897;SDS011;12957;49.434;8.684;2023-12-04T14:26:29;14.47;;;7.97;;
24897;SDS011;12957;49.434;8.684;2023-12-04T14:28:54;17.47;;;8.83;;
24897;SDS011;12957;49.434;8.684;2023-12-04T14:31:22;17.50;;;8.70;;
24897;SDS011;12957;49.434;8.684;2023-12-04T14:33:48;11.63;;;6.77;;
24897;SDS011;12957;49.434;8.684;2023-12-04T14:36:14;16.50;;;8.77;;
24897;SDS011;12957;49.434;8.684;2023-12-04T14:38:41;16.50;;;8.77;;